Bochem Mumbai — VRHJ8 — position and weather

sailwx.info

Track history (hours):
 
Tides and Currents Weather Stations Pressure Air Temp Water Temp Dewpoint Dewpoint Depression Visibility Wind Speed Wind Dir Waves Ship Positions

Bochem Mumbai

Last reported at 2017-Sep-03 06:27 UTC. Time now 2017-Sep-22 13:34 UTC.
Position N 36°05' E 015°09'.
Warning: this ship's position is 19 days out of date.

Length 171 m; draft 11.2 m.

Type: Ship (hazmat cat A). MMSI: 477932400.

Date/timePositionNaut miles runAvg speedWind from/ knotsBaromVisibWave heightAir tempDewpointWater temp
2017-Sep-03 06:27N 36°05' E 015°09'613.1
2017-Sep-03 05:58N 36°06' E 015°02'613.1
2017-Sep-03 05:30N 36°08' E 014°54'713.2
2017-Sep-03 04:59N 36°11' E 014°47'613.2
2017-Sep-03 04:30N 36°13' E 014°39'713.1
2017-Sep-03 04:00N 36°15' E 014°31'613.0
2017-Sep-03 03:30N 36°17' E 014°24'712.9
2017-Sep-03 02:58N 36°19' E 014°16'613.0
2017-Sep-03 02:30N 36°21' E 014°09'712.9
2017-Sep-03 02:00N 36°23' E 014°01'612.9
2017-Sep-03 01:30N 36°25' E 013°53'712.8
2017-Sep-03 01:00N 36°28' E 013°46'712.9
2017-Sep-03 00:29N 36°30' E 013°38'712.9
2017-Sep-02 23:59N 36°32' E 013°30'55512.3
2017-Sep-01 02:39N 37°16' E 001°58'1911.7
2017-Sep-01 01:03N 37°10' E 001°36'011.8
2017-Sep-01 01:00N 37°10' E 001°35'1011.7
2017-Sep-01 00:10N 37°07' E 001°24'3211.7
2017-Aug-31 21:25N 36°57' E 000°45'512.6
2017-Aug-31 21:00N 36°55' E 000°39'712.6
2017-Aug-31 20:28N 36°53' E 000°31'612.5
2017-Aug-31 20:00N 36°51' E 000°24'612.3
2017-Aug-31 19:30N 36°49' E 000°17'612.2
2017-Aug-31 19:00N 36°46' E 000°10'26413.1
2017-Aug-30 22:52N 36°00' W 005°12'514.3
2017-Aug-30 22:30N 35°59' W 005°19'713.4
2017-Aug-30 22:00N 35°57' W 005°27'713.4
2017-Aug-30 21:30N 35°55' W 005°34'713.1
2017-Aug-30 21:00N 35°54' W 005°42'712.8
2017-Aug-30 20:28N 35°54' W 005°51'612.8
2017-Aug-30 20:00N 35°53' W 005°58'61712.3
2017-Aug-28 17:55N 28°00' W 013°45'612.5
2017-Aug-28 17:28N 27°55' W 013°48'8412.1
2017-Aug-28 10:33N 26°49' W 014°46'312.2
2017-Aug-28 10:21N 26°47' W 014°48'412.1
2017-Aug-28 09:59N 26°44' W 014°51'812.1
2017-Aug-28 09:21N 26°38' W 014°57'3611.7
2017-Aug-28 06:16N 26°11' W 015°23'511.6
2017-Aug-28 05:50N 26°07' W 015°27'411.7
2017-Aug-28 05:28N 26°04' W 015°30'2311.8
2017-Aug-28 03:30N 25°46' W 015°46'611.8
2017-Aug-28 03:00N 25°41' W 015°50'612.0
2017-Aug-28 02:30N 25°36' W 015°55'9912.1
2017-Aug-27 18:21N 24°16' W 016°57'  
Track history (hours):
 
Tides and Currents Weather Stations Pressure Air Temp Water Temp Dewpoint Dewpoint Depression Visibility Wind Speed Wind Dir Waves Ship Positions

Bochem Mumbai

Last reported at 2017-Sep-03 06:27 UTC. Time now 2017-Sep-22 13:34 UTC.
Position N 36°05' E 015°09'.
Warning: this ship's position is 19 days out of date.

Length 171 m; draft 11.2 m.

Type: Ship (hazmat cat A). MMSI: 477932400.

Date/timePositionNaut miles runAvg speedWind from/ knotsBaromVisibWave heightAir tempDewpointWater temp
2017-Sep-03 06:27N 36°05' E 015°09'613.1
2017-Sep-03 05:58N 36°06' E 015°02'613.1
2017-Sep-03 05:30N 36°08' E 014°54'713.2
2017-Sep-03 04:59N 36°11' E 014°47'613.2
2017-Sep-03 04:30N 36°13' E 014°39'713.1
2017-Sep-03 04:00N 36°15' E 014°31'613.0
2017-Sep-03 03:30N 36°17' E 014°24'712.9
2017-Sep-03 02:58N 36°19' E 014°16'613.0
2017-Sep-03 02:30N 36°21' E 014°09'712.9
2017-Sep-03 02:00N 36°23' E 014°01'612.9
2017-Sep-03 01:30N 36°25' E 013°53'712.8
2017-Sep-03 01:00N 36°28' E 013°46'712.9
2017-Sep-03 00:29N 36°30' E 013°38'712.9
2017-Sep-02 23:59N 36°32' E 013°30'55512.3
2017-Sep-01 02:39N 37°16' E 001°58'1911.7
2017-Sep-01 01:03N 37°10' E 001°36'011.8
2017-Sep-01 01:00N 37°10' E 001°35'1011.7
2017-Sep-01 00:10N 37°07' E 001°24'3211.7
2017-Aug-31 21:25N 36°57' E 000°45'512.6
2017-Aug-31 21:00N 36°55' E 000°39'712.6
2017-Aug-31 20:28N 36°53' E 000°31'612.5
2017-Aug-31 20:00N 36°51' E 000°24'612.3
2017-Aug-31 19:30N 36°49' E 000°17'612.2
2017-Aug-31 19:00N 36°46' E 000°10'26413.1
2017-Aug-30 22:52N 36°00' W 005°12'514.3
2017-Aug-30 22:30N 35°59' W 005°19'713.4
2017-Aug-30 22:00N 35°57' W 005°27'713.4
2017-Aug-30 21:30N 35°55' W 005°34'713.1
2017-Aug-30 21:00N 35°54' W 005°42'712.8
2017-Aug-30 20:28N 35°54' W 005°51'612.8
2017-Aug-30 20:00N 35°53' W 005°58'61712.3
2017-Aug-28 17:55N 28°00' W 013°45'612.5
2017-Aug-28 17:28N 27°55' W 013°48'8412.1
2017-Aug-28 10:33N 26°49' W 014°46'312.2
2017-Aug-28 10:21N 26°47' W 014°48'412.1
2017-Aug-28 09:59N 26°44' W 014°51'812.1
2017-Aug-28 09:21N 26°38' W 014°57'3611.7
2017-Aug-28 06:16N 26°11' W 015°23'511.6
2017-Aug-28 05:50N 26°07' W 015°27'411.7
2017-Aug-28 05:28N 26°04' W 015°30'2311.8
2017-Aug-28 03:30N 25°46' W 015°46'611.8
2017-Aug-28 03:00N 25°41' W 015°50'612.0
2017-Aug-28 02:30N 25°36' W 015°55'9912.1
2017-Aug-27 18:21N 24°16' W 016°57'  

Dump ship's entire track history